Time;durP1;ratioP1;P1;durP2;ratioP2;P2;SDS_P1;SDS_P2;PMS_P1;PMS_P2;Temp;Humidity;BMP_temperature;BMP_pressure;BME280_temperature;BME280_humidity;BME280_pressure;Samples;Min_cycle;Max_cycle;Signal;HPM_P1;HPM_P2
2021/05/21 00:01:40;;;;;;;2.63;1.30;;;14.30;77.10;;;;;;5012387;28;20504;-72
2021/05/21 00:04:07;;;;;;;1.77;1.00;;;14.30;77.30;;;;;;5011189;28;20475;-72
2021/05/21 00:06:34;;;;;;;3.67;0.90;;;14.30;77.30;;;;;;4979262;28;20508;-72
2021/05/21 00:09:01;;;;;;;1.03;0.70;;;14.30;77.50;;;;;;4996440;28;20476;-72
2021/05/21 00:11:28;;;;;;;2.60;0.90;;;14.30;77.80;;;;;;5006007;28;20860;-72
2021/05/21 00:13:55;;;;;;;2.90;1.00;;;14.30;77.40;;;;;;4992046;28;20454;-72
2021/05/21 00:16:22;;;;;;;3.37;0.97;;;14.30;77.80;;;;;;5007211;28;20532;-72
2021/05/21 00:18:51;;;;;;;1.13;0.73;;;14.30;77.90;;;;;;4986992;28;20504;-72
2021/05/21 00:21:18;;;;;;;1.20;0.83;;;14.30;78.00;;;;;;5010481;28;20480;-72
2021/05/21 00:23:45;;;;;;;0.90;0.70;;;14.30;78.20;;;;;;5007872;28;20477;-72
2021/05/21 00:26:13;;;;;;;2.07;1.07;;;14.20;78.00;;;;;;5008576;28;20535;-72
2021/05/21 00:28:40;;;;;;;1.47;0.93;;;14.30;78.20;;;;;;5008871;28;20523;-72
2021/05/21 00:31:07;;;;;;;3.30;1.00;;;14.30;79.50;;;;;;4992512;28;20421;-72
2021/05/21 00:33:34;;;;;;;4.10;0.90;;;14.30;78.60;;;;;;4998270;28;20457;-72
2021/05/21 00:36:01;;;;;;;1.33;0.80;;;14.30;78.70;;;;;;4995172;28;20436;-72
2021/05/21 00:38:27;;;;;;;2.67;1.47;;;14.30;78.00;;;;;;5008213;28;20551;-72
2021/05/21 00:40:54;;;;;;;2.87;1.00;;;14.30;78.40;;;;;;4995391;28;20489;-72
2021/05/21 00:43:21;;;;;;;2.23;0.93;;;14.20;79.30;;;;;;4991837;28;20483;-72
2021/05/21 00:45:48;;;;;;;1.70;1.03;;;14.20;78.90;;;;;;5010052;28;20521;-72
2021/05/21 00:48:15;;;;;;;7.00;1.10;;;14.20;79.20;;;;;;5009955;28;20835;-72
2021/05/21 00:50:42;;;;;;;3.90;1.10;;;14.20;79.10;;;;;;5008594;28;20447;-72
2021/05/21 00:53:11;;;;;;;2.03;0.87;;;14.20;79.40;;;;;;5004595;28;20454;-72
2021/05/21 00:55:38;;;;;;;1.50;0.83;;;14.10;78.90;;;;;;4991846;28;20883;-72
2021/05/21 00:58:06;;;;;;;2.00;1.00;;;14.20;79.20;;;;;;5008042;28;20461;-72
2021/05/21 01:00:33;;;;;;;1.20;1.00;;;14.20;78.80;;;;;;5009813;28;20425;-72
2021/05/21 01:03:00;;;;;;;3.27;0.90;;;14.20;79.50;;;;;;4994445;28;20815;-72
2021/05/21 01:05:27;;;;;;;2.00;0.83;;;14.20;79.20;;;;;;4987420;28;20439;-72
2021/05/21 01:07:54;;;;;;;2.53;1.07;;;14.10;78.80;;;;;;4986609;28;20461;-73
2021/05/21 01:10:21;;;;;;;1.00;0.70;;;14.20;78.90;;;;;;5001124;28;20532;-72
2021/05/21 01:12:48;;;;;;;1.00;0.80;;;14.10;79.30;;;;;;5010223;28;20445;-72
2021/05/21 01:15:16;;;;;;;2.10;1.00;;;14.10;79.20;;;;;;4992084;28;20442;-72
2021/05/21 01:17:43;;;;;;;2.10;1.27;;;14.10;79.40;;;;;;4982993;28;20573;-72
2021/05/21 01:20:12;;;;;;;2.10;0.90;;;14.10;80.50;;;;;;5006783;28;21049;-72
2021/05/21 01:22:41;;;;;;;2.80;1.40;;;14.10;81.10;;;;;;4991892;28;20441;-72
2021/05/21 01:25:09;;;;;;;3.90;1.20;;;14.00;80.40;;;;;;4980875;28;20562;-72
2021/05/21 01:27:36;;;;;;;1.60;1.10;;;14.00;81.40;;;;;;5004009;28;20471;-72
2021/05/21 01:30:06;;;;;;;1.93;1.00;;;13.90;81.50;;;;;;5010869;28;20523;-72
2021/05/21 01:32:33;;;;;;;5.00;1.50;;;13.90;81.50;;;;;;4995882;28;20902;-72
2021/05/21 01:35:00;;;;;;;2.67;0.90;;;13.90;82.90;;;;;;5002480;28;20472;-72
2021/05/21 01:37:27;;;;;;;2.53;1.50;;;13.80;82.20;;;;;;5001296;28;20573;-72
2021/05/21 01:39:54;;;;;;;1.93;1.20;;;13.80;82.20;;;;;;4993849;28;20551;-72
2021/05/21 01:42:21;;;;;;;4.50;1.27;;;13.90;83.50;;;;;;5011129;28;20445;-72
2021/05/21 01:44:55;;;;;;;2.67;1.63;;;13.90;82.80;;;;;;5008355;28;20462;-72
2021/05/21 01:47:22;;;;;;;2.00;1.40;;;13.80;83.60;;;;;;4995182;28;20875;-72
2021/05/21 01:49:48;;;;;;;1.37;1.23;;;13.80;83.80;;;;;;5000361;28;20464;-72
2021/05/21 01:52:18;;;;;;;2.37;1.03;;;13.80;83.30;;;;;;5001532;28;20511;-72
2021/05/21 01:54:45;;;;;;;1.77;0.97;;;13.80;83.50;;;;;;4993609;28;20471;-72
2021/05/21 01:57:12;;;;;;;1.27;1.00;;;13.80;84.70;;;;;;4974141;28;20462;-72
2021/05/21 01:59:39;;;;;;;3.20;1.40;;;13.90;84.50;;;;;;4997598;28;20473;-72
2021/05/21 02:02:06;;;;;;;1.60;1.00;;;13.80;84.00;;;;;;5014524;28;20422;-72
2021/05/21 02:04:38;;;;;;;2.60;1.40;;;13.80;84.80;;;;;;4996368;28;20573;-72
2021/05/21 02:07:06;;;;;;;2.87;1.17;;;13.80;84.40;;;;;;4994612;28;21062;-72
2021/05/21 02:09:57;;;;;;;6.70;1.80;;;13.80;84.80;;;;;;5008539;28;20478;-72
2021/05/21 02:12:25;;;;;;;2.30;1.13;;;13.80;84.50;;;;;;5012879;28;20431;-72
2021/05/21 02:14:55;;;;;;;3.30;1.80;;;13.80;85.20;;;;;;4998580;28;20468;-72
2021/05/21 02:17:22;;;;;;;4.13;1.20;;;13.80;85.20;;;;;;4994214;28;20473;-72
2021/05/21 02:19:49;;;;;;;4.10;1.30;;;13.80;85.20;;;;;;5006728;28;20560;-72
2021/05/21 02:22:20;;;;;;;2.20;1.20;;;13.80;86.00;;;;;;5003913;28;20504;-72
2021/05/21 02:24:50;;;;;;;3.30;2.00;;;13.70;86.00;;;;;;4993536;28;20520;-72
2021/05/21 02:27:16;;;;;;;2.47;1.27;;;13.70;85.60;;;;;;5003795;28;20460;-72
2021/05/21 02:29:43;;;;;;;1.40;1.30;;;13.60;85.80;;;;;;5011989;28;20515;-72
2021/05/21 02:32:10;;;;;;;1.60;1.20;;;13.60;86.80;;;;;;5020492;28;20461;-72
2021/05/21 02:34:37;;;;;;;1.67;1.00;;;13.60;86.80;;;;;;4993147;28;20925;-72
2021/05/21 02:37:04;;;;;;;1.53;0.90;;;13.50;86.80;;;;;;4994154;28;20493;-72
2021/05/21 02:39:31;;;;;;;4.07;1.00;;;13.50;86.80;;;;;;4986521;28;20553;-72
2021/05/21 02:41:58;;;;;;;2.77;1.53;;;13.50;88.00;;;;;;5000051;28;20875;-72
2021/05/21 02:44:25;;;;;;;3.03;1.20;;;13.40;86.70;;;;;;5009877;28;20583;-72
2021/05/21 02:46:52;;;;;;;2.00;1.10;;;13.50;86.80;;;;;;4993967;28;20512;-72
2021/05/21 02:49:21;;;;;;;3.07;1.20;;;13.40;86.60;;;;;;4993392;28;20602;-72
2021/05/21 02:51:50;;;;;;;3.23;1.20;;;13.40;86.60;;;;;;5013537;28;20826;-72
2021/05/21 02:54:17;;;;;;;2.40;1.30;;;13.40;86.70;;;;;;5001265;28;20549;-72
2021/05/21 02:56:44;;;;;;;2.30;0.97;;;13.40;86.60;;;;;;4995336;28;20507;-72
2021/05/21 02:59:11;;;;;;;2.10;1.03;;;13.40;86.60;;;;;;5011565;28;21045;-72
2021/05/21 03:01:39;;;;;;;1.60;1.10;;;13.40;86.40;;;;;;5026889;28;20787;-72
2021/05/21 03:04:06;;;;;;;2.10;1.17;;;13.40;85.80;;;;;;4991776;28;20458;-72
2021/05/21 03:06:32;;;;;;;2.30;1.13;;;13.40;85.80;;;;;;4989637;28;20968;-72
2021/05/21 03:08:59;;;;;;;1.83;1.00;;;13.40;85.30;;;;;;5012009;28;20512;-72
2021/05/21 03:11:26;;;;;;;2.37;1.37;;;13.50;85.20;;;;;;5012614;28;20528;-72
2021/05/21 03:13:53;;;;;;;1.63;0.97;;;13.40;85.20;;;;;;5012310;28;20516;-72
2021/05/21 03:16:20;;;;;;;1.80;1.00;;;13.40;85.40;;;;;;4996632;28;20532;-72
2021/05/21 03:18:47;;;;;;;1.20;0.90;;;13.40;86.40;;;;;;5003893;28;20473;-72
2021/05/21 03:21:14;;;;;;;1.33;1.00;;;13.40;86.50;;;;;;5013109;28;20532;-72
2021/05/21 03:23:41;;;;;;;1.60;0.83;;;13.30;86.60;;;;;;5006411;28;20466;-72
2021/05/21 03:26:08;;;;;;;4.53;1.43;;;13.30;86.60;;;;;;4993359;28;20445;-72
2021/05/21 03:28:35;;;;;;;2.30;1.07;;;13.30;86.50;;;;;;4997372;28;20465;-72
2021/05/21 03:31:02;;;;;;;2.00;1.07;;;13.20;86.50;;;;;;5010595;28;20473;-72
2021/05/21 03:33:28;;;;;;;1.30;1.00;;;13.20;87.50;;;;;;5010317;28;21041;-72
2021/05/21 03:35:55;;;;;;;1.30;1.20;;;13.10;88.70;;;;;;5011981;28;20527;-72
2021/05/21 03:38:24;;;;;;;2.43;1.13;;;13.10;88.80;;;;;;4995523;28;20454;-72
2021/05/21 03:40:51;;;;;;;2.07;1.00;;;13.10;89.30;;;;;;4987866;28;20477;-72
2021/05/21 03:43:18;;;;;;;2.20;0.87;;;13.10;89.00;;;;;;5003982;28;20894;-72
2021/05/21 03:45:45;;;;;;;1.40;1.10;;;13.20;88.40;;;;;;5012477;28;20993;-72
2021/05/21 03:48:12;;;;;;;2.10;1.33;;;13.10;89.30;;;;;;5001190;28;20461;-72
2021/05/21 03:50:40;;;;;;;1.47;1.37;;;13.10;89.80;;;;;;4992302;28;20470;-72
2021/05/21 03:53:07;;;;;;;2.30;1.03;;;13.00;90.40;;;;;;4972970;28;20454;-72
2021/05/21 03:55:34;;;;;;;4.07;1.47;;;13.00;90.80;;;;;;4985082;28;20503;-73
2021/05/21 03:58:00;;;;;;;1.77;1.13;;;12.90;90.80;;;;;;5009560;28;20460;-72
2021/05/21 04:00:28;;;;;;;3.03;1.47;;;12.90;91.20;;;;;;5012344;28;20457;-72
2021/05/21 04:02:54;;;;;;;2.50;0.90;;;12.90;91.40;;;;;;4995196;28;20448;-72
2021/05/21 04:05:21;;;;;;;2.90;1.20;;;12.90;91.80;;;;;;4999238;28;20464;-72
2021/05/21 04:07:49;;;;;;;1.53;1.23;;;12.90;91.50;;;;;;4998149;28;20476;-72
2021/05/21 04:10:17;;;;;;;2.57;1.23;;;13.00;91.40;;;;;;4996917;28;20465;-72
2021/05/21 04:12:44;;;;;;;2.40;1.30;;;12.90;91.70;;;;;;5012229;28;20425;-72
2021/05/21 04:15:12;;;;;;;1.53;0.97;;;12.90;92.10;;;;;;4992792;28;20549;-72
2021/05/21 04:17:39;;;;;;;2.50;1.23;;;12.80;92.40;;;;;;4995770;28;20468;-72
2021/05/21 04:20:06;;;;;;;1.60;1.10;;;12.80;92.10;;;;;;4993712;28;20534;-72
2021/05/21 04:22:33;;;;;;;3.67;1.47;;;12.80;92.30;;;;;;5002343;28;20503;-72
2021/05/21 04:25:01;;;;;;;2.20;1.10;;;12.90;91.90;;;;;;5002659;28;20472;-72
2021/05/21 04:27:27;;;;;;;1.23;1.00;;;12.90;92.10;;;;;;5000464;28;20544;-72
2021/05/21 04:29:54;;;;;;;5.63;1.30;;;12.90;91.90;;;;;;5010148;28;20825;-72
2021/05/21 04:32:21;;;;;;;4.20;1.53;;;12.90;92.10;;;;;;5003096;28;20440;-72
2021/05/21 04:34:49;;;;;;;2.50;1.17;;;12.90;91.80;;;;;;5010272;28;20535;-72
2021/05/21 04:37:16;;;;;;;3.70;1.20;;;13.00;91.80;;;;;;5011005;28;20878;-72
2021/05/21 04:39:43;;;;;;;2.67;1.70;;;13.00;92.20;;;;;;4997835;28;20469;-72
2021/05/21 04:42:10;;;;;;;3.83;1.00;;;13.10;92.10;;;;;;4993544;28;20520;-72
2021/05/21 04:44:37;;;;;;;2.87;1.50;;;13.10;91.80;;;;;;4991951;28;20465;-72
2021/05/21 04:47:04;;;;;;;0.93;0.83;;;13.20;91.40;;;;;;5005761;28;20552;-72
2021/05/21 04:49:37;;;;;;;1.40;1.20;;;13.20;91.40;;;;;;5009813;28;20468;-72
2021/05/21 04:52:08;;;;;;;2.37;1.10;;;13.20;91.40;;;;;;5009592;28;20428;-72
2021/05/21 04:54:39;;;;;;;3.33;1.17;;;13.30;91.40;;;;;;4996850;28;21047;-73
2021/05/21 04:57:06;;;;;;;4.00;1.27;;;13.30;91.20;;;;;;4972550;28;20975;-72
2021/05/21 04:59:34;;;;;;;1.67;1.10;;;13.40;90.80;;;;;;4987918;28;20477;-72
2021/05/21 05:02:02;;;;;;;2.90;1.13;;;13.40;90.50;;;;;;4994266;28;20985;-72
2021/05/21 05:04:29;;;;;;;1.13;1.03;;;13.50;90.90;;;;;;4998299;28;20641;-72
2021/05/21 05:06:56;;;;;;;1.87;1.40;;;13.60;90.30;;;;;;5003998;28;20996;-72
2021/05/21 05:09:23;;;;;;;2.30;1.20;;;13.60;90.30;;;;;;5010989;28;20513;-72
2021/05/21 05:11:50;;;;;;;2.17;1.30;;;13.60;90.20;;;;;;5013694;28;20540;-73
2021/05/21 05:14:17;;;;;;;0.80;0.73;;;13.60;89.60;;;;;;5014860;28;20859;-72
2021/05/21 05:16:44;;;;;;;3.27;1.30;;;13.70;89.90;;;;;;5005455;28;20461;-72
2021/05/21 05:19:11;;;;;;;1.27;1.17;;;13.70;89.50;;;;;;4989037;28;20473;-72
2021/05/21 05:21:41;;;;;;;1.53;0.73;;;13.70;89.40;;;;;;5012818;28;20488;-72
2021/05/21 05:24:14;;;;;;;2.83;1.40;;;13.70;89.60;;;;;;4994677;28;20488;-72
2021/05/21 05:26:41;;;;;;;4.20;1.43;;;13.70;88.90;;;;;;4997414;28;20453;-72
2021/05/21 05:29:09;;;;;;;2.93;1.10;;;13.70;88.10;;;;;;4994819;28;20548;-72
2021/05/21 05:31:38;;;;;;;3.50;1.20;;;13.70;89.30;;;;;;4995586;28;20488;-72
2021/05/21 05:34:05;;;;;;;3.10;1.27;;;13.80;87.70;;;;;;5027893;28;20468;-72
2021/05/21 05:36:34;;;;;;;5.63;1.53;;;13.70;88.30;;;;;;5014960;28;20468;-72
2021/05/21 05:39:02;;;;;;;2.73;1.67;;;13.70;88.10;;;;;;5005227;28;20508;-72
2021/05/21 05:41:29;;;;;;;1.47;1.20;;;13.70;87.90;;;;;;4974407;28;20442;-73
2021/05/21 05:43:56;;;;;;;5.37;1.77;;;13.70;87.00;;;;;;4975399;28;20470;-72
2021/05/21 05:46:23;;;;;;;2.70;1.60;;;13.70;87.00;;;;;;4998213;28;20433;-72
2021/05/21 05:48:50;;;;;;;2.40;1.37;;;13.80;87.10;;;;;;5012973;28;20465;-73
2021/05/21 05:51:17;;;;;;;6.10;2.20;;;13.80;87.00;;;;;;4995274;28;20537;-72
2021/05/21 05:53:45;;;;;;;4.23;1.90;;;13.80;87.10;;;;;;5012896;28;20540;-72
2021/05/21 05:56:12;;;;;;;2.73;1.80;;;13.80;87.10;;;;;;5025072;28;20436;-72
2021/05/21 05:58:40;;;;;;;6.27;2.70;;;13.80;86.00;;;;;;4996771;28;20524;-72
2021/05/21 06:01:07;;;;;;;4.17;2.00;;;13.80;86.20;;;;;;5007855;28;20457;-72
2021/05/21 06:03:34;;;;;;;4.13;2.30;;;13.80;87.00;;;;;;5023631;28;20886;-72
2021/05/21 06:06:01;;;;;;;3.17;1.90;;;13.80;86.20;;;;;;5012113;28;20473;-72
2021/05/21 06:08:48;;;;;;;3.93;2.03;;;13.80;85.80;;;;;;4996066;28;20465;-72
2021/05/21 06:11:15;;;;;;;3.20;2.07;;;13.90;86.50;;;;;;5021770;28;20887;-72
2021/05/21 06:13:45;;;;;;;4.37;2.37;;;14.00;85.70;;;;;;5012547;28;20464;-72
2021/05/21 06:16:12;;;;;;;4.10;2.13;;;14.10;84.00;;;;;;5005640;28;20438;-72
2021/05/21 06:18:40;;;;;;;3.53;2.50;;;14.10;82.20;;;;;;4993033;28;21030;-72
2021/05/21 06:21:08;;;;;;;5.00;1.90;;;14.10;83.00;;;;;;4999112;28;20439;-72
2021/05/21 06:23:37;;;;;;;1.53;1.37;;;14.10;82.10;;;;;;4998768;28;20508;-72
2021/05/21 06:28:51;;;;;;;8.17;1.47;;;14.30;82.50;;;;;;5004195;28;20469;-72
2021/05/21 06:31:19;;;;;;;7.30;1.70;;;14.30;81.30;;;;;;4994690;28;20937;-72
2021/05/21 06:33:47;;;;;;;9.37;2.50;;;14.40;81.10;;;;;;5002425;28;20481;-72
2021/05/21 06:36:17;;;;;;;4.07;1.83;;;14.40;79.30;;;;;;4993703;28;20477;-72
2021/05/21 06:38:44;;;;;;;6.17;1.93;;;14.40;80.70;;;;;;4992980;28;20488;-72
2021/05/21 06:41:14;;;;;;;3.50;1.67;;;14.30;81.50;;;;;;4976065;28;21010;-72
2021/05/21 06:43:41;;;;;;;5.67;1.53;;;14.30;80.50;;;;;;4973764;28;20467;-72
2021/05/21 06:46:08;;;;;;;6.40;2.13;;;14.40;79.70;;;;;;4985781;28;20430;-72
2021/05/21 06:48:36;;;;;;;4.20;1.50;;;14.30;79.50;;;;;;4992650;28;20470;-72
2021/05/21 06:51:06;;;;;;;2.07;1.60;;;14.30;78.40;;;;;;4994176;28;20465;-73
2021/05/21 06:53:34;;;;;;;3.03;1.57;;;14.30;78.30;;;;;;4995692;28;20471;-72
2021/05/21 06:56:01;;;;;;;3.20;1.77;;;14.20;77.10;;;;;;5011743;28;20449;-72
2021/05/21 06:58:31;;;;;;;4.03;1.50;;;14.30;77.80;;;;;;5011648;28;20468;-73
2021/05/21 07:00:58;;;;;;;3.57;1.90;;;14.30;77.70;;;;;;5028840;28;20471;-72
2021/05/21 07:03:28;;;;;;;7.40;1.73;;;14.40;75.80;;;;;;4998144;28;20461;-72
2021/05/21 07:05:56;;;;;;;6.77;1.73;;;14.30;76.50;;;;;;5008841;28;20461;-72
2021/05/21 07:08:29;;;;;;;6.63;1.73;;;14.20;77.30;;;;;;4996636;28;20556;-72
2021/05/21 07:10:56;;;;;;;7.80;1.87;;;14.20;77.90;;;;;;5023123;28;20484;-72
2021/05/21 07:13:26;;;;;;;6.00;1.90;;;14.20;77.90;;;;;;4996899;28;20457;-72
2021/05/21 07:15:53;;;;;;;5.30;2.27;;;14.20;78.40;;;;;;4993776;28;20460;-72
2021/05/21 07:18:21;;;;;;;6.30;1.87;;;14.20;77.10;;;;;;4993524;28;20482;-73
2021/05/21 07:20:49;;;;;;;4.40;2.07;;;14.30;77.10;;;;;;5014027;28;20983;-72
2021/05/21 07:23:16;;;;;;;3.70;1.70;;;14.30;75.60;;;;;;5000877;28;20560;-72
2021/05/21 07:25:43;;;;;;;5.23;1.90;;;14.30;74.80;;;;;;4992951;28;20440;-72
2021/05/21 07:28:12;;;;;;;2.27;2.00;;;14.30;75.70;;;;;;4976950;28;20455;-72
2021/05/21 07:30:40;;;;;;;4.60;1.80;;;14.20;75.50;;;;;;4993095;28;20434;-72
2021/05/21 07:33:07;;;;;;;3.23;1.53;;;14.20;74.80;;;;;;5000754;28;20457;-72
2021/05/21 07:35:34;;;;;;;3.03;1.57;;;14.30;73.90;;;;;;5010718;28;20808;-73
2021/05/21 07:38:01;;;;;;;6.23;1.83;;;14.30;74.20;;;;;;4992756;28;20500;-73
2021/05/21 07:40:28;;;;;;;2.00;1.43;;;14.30;73.60;;;;;;4986516;28;20928;-72
2021/05/21 07:42:56;;;;;;;6.30;1.80;;;14.30;71.90;;;;;;5008233;28;20434;-72
2021/05/21 07:45:23;;;;;;;6.83;2.33;;;14.30;71.00;;;;;;4992900;28;20967;-72
2021/05/21 07:47:50;;;;;;;5.73;2.30;;;14.30;70.10;;;;;;4985637;28;20499;-72
2021/05/21 07:50:17;;;;;;;5.60;2.80;;;14.50;68.00;;;;;;5006771;28;20464;-72
2021/05/21 07:52:44;;;;;;;7.77;3.00;;;14.60;68.40;;;;;;5010741;28;20433;-72
2021/05/21 07:55:12;;;;;;;5.13;2.70;;;14.80;68.30;;;;;;5006651;28;20474;-72
2021/05/21 07:57:39;;;;;;;7.53;3.13;;;15.00;68.40;;;;;;5010464;28;20535;-72
2021/05/21 08:00:09;;;;;;;10.70;3.50;;;14.90;67.70;;;;;;5014909;28;20481;-72
2021/05/21 08:02:37;;;;;;;4.00;2.10;;;14.90;67.70;;;;;;4992850;28;20545;-73
2021/05/21 08:05:05;;;;;;;6.87;2.13;;;14.90;68.10;;;;;;4996850;28;20473;-73
2021/05/21 08:07:32;;;;;;;5.33;2.37;;;15.00;69.40;;;;;;5010542;28;20470;-73
2021/05/21 08:10:01;;;;;;;7.93;2.93;;;15.20;66.80;;;;;;5007874;28;20478;-73
2021/05/21 08:12:29;;;;;;;8.57;2.30;;;15.40;65.10;;;;;;5001744;28;20514;-73
2021/05/21 08:14:58;;;;;;;4.90;2.10;;;15.30;64.70;;;;;;4992265;28;20462;-73
2021/05/21 08:17:26;;;;;;;7.97;2.20;;;15.20;64.30;;;;;;4974139;28;20969;-73
2021/05/21 08:20:08;;;;;;;6.53;1.90;;;15.10;63.70;;;;;;4971388;28;20476;-73
2021/05/21 08:22:41;;;;;;;7.17;2.47;;;15.10;63.60;;;;;;4973072;28;20786;-73
2021/05/21 08:25:09;;;;;;;4.17;1.67;;;15.00;63.90;;;;;;4970947;28;20523;-73
2021/05/21 08:27:36;;;;;;;8.83;2.53;;;15.20;64.10;;;;;;4971459;28;20452;-73
2021/05/21 08:30:04;;;;;;;6.50;1.70;;;15.30;63.40;;;;;;5007026;28;20466;-72
2021/05/21 08:32:31;;;;;;;6.47;1.73;;;15.40;61.80;;;;;;4991159;28;20522;-73
2021/05/21 08:34:59;;;;;;;7.83;3.70;;;15.40;63.30;;;;;;4996407;28;20475;-72
2021/05/21 08:37:26;;;;;;;6.93;1.73;;;15.40;61.20;;;;;;4995909;28;20456;-73
2021/05/21 08:39:54;;;;;;;5.67;1.90;;;15.40;61.00;;;;;;4986852;28;20479;-72
2021/05/21 08:42:22;;;;;;;7.20;1.87;;;15.40;60.60;;;;;;5010595;28;20448;-72
2021/05/21 08:44:54;;;;;;;3.57;1.63;;;15.50;60.90;;;;;;4975211;28;20477;-72
2021/05/21 08:47:21;;;;;;;5.80;2.07;;;15.60;61.60;;;;;;4987627;28;20549;-73
2021/05/21 08:49:49;;;;;;;4.70;2.20;;;15.80;59.80;;;;;;5005421;28;20483;-72
2021/05/21 08:52:17;;;;;;;4.60;1.90;;;16.00;60.10;;;;;;4983260;28;21067;-72
2021/05/21 08:54:45;;;;;;;5.30;2.90;;;16.10;58.90;;;;;;4992873;28;20560;-72
2021/05/21 08:57:18;;;;;;;4.50;1.90;;;16.20;55.90;;;;;;4984922;28;20459;-72
2021/05/21 08:59:48;;;;;;;5.37;2.10;;;16.30;57.30;;;;;;5013721;28;20540;-72
2021/05/21 09:02:24;;;;;;;3.80;1.90;;;16.30;56.20;;;;;;5010876;28;20429;-73
2021/05/21 09:04:56;;;;;;;5.50;1.93;;;16.30;56.80;;;;;;4977370;28;20468;-72
2021/05/21 09:07:28;;;;;;;4.87;1.93;;;16.30;56.60;;;;;;5009382;28;21085;-72
2021/05/21 09:09:57;;;;;;;9.77;2.77;;;16.30;57.60;;;;;;4987678;28;20470;-72
2021/05/21 09:12:38;;;;;;;6.73;2.70;;;16.10;57.70;;;;;;4990187;28;20436;-72
2021/05/21 09:15:26;;;;;;;7.33;2.70;;;16.00;57.50;;;;;;5007609;28;21039;-72
2021/05/21 09:17:57;;;;;;;4.93;2.03;;;16.10;57.70;;;;;;5010355;28;20464;-73
2021/05/21 09:20:40;;;;;;;6.93;2.60;;;16.20;55.50;;;;;;4981293;28;20471;-73
2021/05/21 09:23:16;;;;;;;8.13;2.33;;;16.30;56.00;;;;;;5014762;28;21391;-72
2021/05/21 09:25:53;;;;;;;4.20;1.87;;;16.30;55.40;;;;;;5015203;28;20537;-72
2021/05/21 09:28:30;;;;;;;8.50;2.60;;;16.40;55.50;;;;;;4994459;28;20987;-72
2021/05/21 09:31:14;;;;;;;13.60;2.50;;;16.50;56.00;;;;;;4994659;28;20472;-72
2021/05/21 09:33:43;;;;;;;5.77;2.00;;;16.80;55.90;;;;;;5002807;28;20491;-72
2021/05/21 09:36:12;;;;;;;5.47;2.07;;;16.90;55.30;;;;;;4995504;28;20433;-73
2021/05/21 09:38:50;;;;;;;5.13;2.00;;;17.00;54.80;;;;;;5000204;28;20467;-73
2021/05/21 09:41:46;;;;;;;7.00;2.07;;;17.00;52.70;;;;;;5013353;28;20432;-72
2021/05/21 09:44:14;;;;;;;8.33;2.90;;;16.70;53.50;;;;;;5014179;28;20873;-72
2021/05/21 09:46:49;;;;;;;12.30;3.00;;;16.50;54.70;;;;;;5013160;28;20459;-73
2021/05/21 09:49:28;;;;;;;9.87;2.17;;;16.30;55.20;;;;;;5010914;28;20480;-72
2021/05/21 09:51:57;;;;;;;10.23;3.40;;;16.20;56.00;;;;;;4974513;28;20423;-72
2021/05/21 09:54:26;;;;;;;7.37;2.67;;;16.30;54.70;;;;;;4981376;28;21072;-72
2021/05/21 09:57:06;;;;;;;12.13;2.93;;;16.30;55.10;;;;;;5012616;28;20874;-72
2021/05/21 09:59:45;;;;;;;8.27;3.10;;;16.30;55.80;;;;;;4996068;28;20856;-72
2021/05/21 10:02:30;;;;;;;6.70;2.50;;;16.50;55.40;;;;;;4997880;28;20447;-72
2021/05/21 10:04:59;;;;;;;5.50;2.40;;;16.50;53.40;;;;;;4993172;28;20488;-72
2021/05/21 10:07:27;;;;;;;5.27;2.07;;;16.60;52.40;;;;;;5010090;28;20580;-72
2021/05/21 10:09:54;;;;;;;6.37;2.53;;;16.70;52.30;;;;;;4993744;28;20557;-72
2021/05/21 10:12:25;;;;;;;7.50;2.90;;;16.80;52.10;;;;;;5002720;28;20441;-72
2021/05/21 10:14:53;;;;;;;6.20;2.33;;;16.90;51.10;;;;;;5013686;28;20838;-72
2021/05/21 10:17:23;;;;;;;6.37;2.20;;;16.80;51.60;;;;;;5005706;28;20468;-72
2021/05/21 10:19:51;;;;;;;6.80;2.30;;;16.80;51.00;;;;;;4993503;28;20485;-72
2021/05/21 10:22:28;;;;;;;4.73;2.50;;;16.90;51.50;;;;;;4999492;28;20991;-72
2021/05/21 10:25:04;;;;;;;5.20;2.57;;;16.90;51.80;;;;;;5001566;28;20547;-72
2021/05/21 10:27:32;;;;;;;5.33;2.27;;;17.10;52.00;;;;;;5011918;28;20453;-72
2021/05/21 10:30:08;;;;;;;7.37;2.10;;;17.30;50.60;;;;;;4997874;28;20563;-72
2021/05/21 10:32:36;;;;;;;5.80;2.00;;;17.30;47.70;;;;;;5007627;28;20793;-72
2021/05/21 10:35:18;;;;;;;5.07;1.90;;;17.40;47.40;;;;;;5012519;28;20468;-72
2021/05/21 10:38:26;;;;;;;7.97;2.23;;;17.30;47.80;;;;;;5006339;28;20456;-72
2021/05/21 10:41:12;;;;;;;4.90;1.80;;;17.30;48.90;;;;;;4991829;28;20967;-72
2021/05/21 10:43:46;;;;;;;5.50;2.13;;;;;;;;;;5006259;28;20461;-72
2021/05/21 10:46:26;;;;;;;10.33;2.30;;;17.50;49.10;;;;;;4995943;28;20434;-72
2021/05/21 10:49:00;;;;;;;4.40;2.13;;;17.70;48.90;;;;;;4987383;28;21000;-73
2021/05/21 10:51:47;;;;;;;4.50;1.60;;;17.90;48.30;;;;;;5016473;28;20479;-73
2021/05/21 10:54:25;;;;;;;4.20;1.63;;;18.00;48.20;;;;;;4976646;28;20837;-72
2021/05/21 10:57:06;;;;;;;3.37;1.43;;;17.80;47.90;;;;;;5011706;28;20810;-73
2021/05/21 10:59:59;;;;;;;7.73;1.90;;;17.80;48.10;;;;;;5013205;28;20477;-73
2021/05/21 11:02:49;;;;;;;7.53;2.20;;;18.00;49.50;;;;;;4998861;28;20432;-73
2021/05/21 11:05:31;;;;;;;4.33;1.90;;;17.80;47.20;;;;;;5001294;28;20462;-73
2021/05/21 11:08:00;;;;;;;9.90;2.77;;;17.70;49.10;;;;;;5012672;28;20448;-73
2021/05/21 11:10:34;;;;;;;7.60;1.80;;;17.80;50.10;;;;;;5002394;28;20827;-72
2021/05/21 11:13:15;;;;;;;5.57;2.43;;;17.70;49.00;;;;;;4997222;28;20503;-73
2021/05/21 11:15:56;;;;;;;3.67;1.60;;;17.60;49.40;;;;;;5007334;28;20438;-73
2021/05/21 11:18:23;;;;;;;6.57;3.10;;;17.70;51.00;;;;;;4984524;28;20900;-73
2021/05/21 11:21:12;;;;;;;9.00;2.20;;;17.80;50.10;;;;;;4989078;28;20523;-72
2021/05/21 11:23:46;;;;;;;4.50;2.13;;;17.90;49.80;;;;;;5001342;28;20473;-73
2021/05/21 11:26:13;;;;;;;6.63;2.60;;;17.80;49.00;;;;;;4994724;28;20997;-72
2021/05/21 11:28:46;;;;;;;10.43;2.80;;;17.60;48.70;;;;;;4973278;28;20876;-73
2021/05/21 11:31:16;;;;;;;8.90;2.07;;;17.80;49.40;;;;;;4988855;28;20441;-73
2021/05/21 11:33:45;;;;;;;3.70;1.97;;;18.00;48.60;;;;;;4993586;28;20473;-73
2021/05/21 11:36:12;;;;;;;8.43;2.73;;;18.10;49.00;;;;;;5017868;28;20430;-72
2021/05/21 11:38:39;;;;;;;3.40;1.60;;;18.10;47.00;;;;;;5008227;28;20460;-73
2021/05/21 11:41:12;;;;;;;6.83;2.53;;;18.10;46.00;;;;;;4975300;28;20482;-72
2021/05/21 11:43:42;;;;;;;3.90;1.33;;;18.10;44.60;;;;;;4993499;28;20490;-73
2021/05/21 11:46:18;;;;;;;4.50;1.80;;;18.10;44.80;;;;;;5005932;28;20978;-73
2021/05/21 11:48:47;;;;;;;7.50;2.20;;;18.20;45.20;;;;;;4991681;28;20489;-73
2021/05/21 11:51:26;;;;;;;10.87;2.13;;;18.10;43.90;;;;;;4994168;28;20440;-73
2021/05/21 11:53:54;;;;;;;5.40;1.77;;;18.10;44.50;;;;;;5002860;28;20881;-73
2021/05/21 11:56:32;;;;;;;7.07;2.20;;;18.00;45.00;;;;;;4997470;28;20453;-73
2021/05/21 11:59:14;;;;;;;9.10;2.10;;;17.90;46.10;;;;;;5010268;28;20499;-73
2021/05/21 12:02:05;;;;;;;6.67;2.53;;;17.80;48.10;;;;;;4995542;28;20519;-73
2021/05/21 12:04:34;;;;;;;4.53;1.70;;;17.80;46.70;;;;;;5003353;28;20565;-73
2021/05/21 12:07:02;;;;;;;5.67;2.30;;;17.90;47.60;;;;;;5019207;28;20453;-73
2021/05/21 12:09:32;;;;;;;5.00;1.80;;;17.90;45.30;;;;;;5005982;28;20501;-72
2021/05/21 12:12:03;;;;;;;5.47;1.93;;;18.00;45.10;;;;;;5006543;28;20444;-73
2021/05/21 12:14:31;;;;;;;6.77;2.63;;;18.10;44.70;;;;;;5022397;28;20473;-73
2021/05/21 12:17:00;;;;;;;8.70;2.20;;;18.10;44.00;;;;;;4973978;28;20798;-72
2021/05/21 12:19:30;;;;;;;5.73;2.30;;;18.10;45.40;;;;;;4996545;28;20507;-73
2021/05/21 12:21:57;;;;;;;6.73;2.63;;;18.30;45.80;;;;;;5012156;28;20471;-73
2021/05/21 12:24:28;;;;;;;6.40;2.07;;;18.40;46.30;;;;;;4997291;28;20476;-73
2021/05/21 12:26:56;;;;;;;12.33;2.50;;;18.50;47.40;;;;;;4991343;28;20529;-73
2021/05/21 12:29:27;;;;;;;9.70;3.37;;;18.50;46.30;;;;;;5002784;28;20500;-73
2021/05/21 12:31:59;;;;;;;4.73;2.20;;;18.30;45.90;;;;;;4991193;28;20496;-73
2021/05/21 12:34:28;;;;;;;4.40;1.90;;;18.10;45.50;;;;;;4995076;28;20454;-72
2021/05/21 12:37:02;;;;;;;6.00;2.60;;;18.10;45.60;;;;;;4996861;28;20960;-73
2021/05/21 12:39:40;;;;;;;6.27;2.20;;;18.00;46.10;;;;;;5008679;28;20481;-73
2021/05/21 12:42:08;;;;;;;5.97;2.37;;;18.10;47.00;;;;;;5001180;28;20475;-73
2021/05/21 12:44:43;;;;;;;5.90;2.40;;;18.30;47.10;;;;;;5000587;28;20922;-73
2021/05/21 12:47:14;;;;;;;4.30;2.07;;;18.30;46.40;;;;;;4996474;28;20581;-73
2021/05/21 12:49:46;;;;;;;6.80;2.40;;;18.20;45.60;;;;;;4999171;28;20976;-72
2021/05/21 12:52:14;;;;;;;8.33;2.17;;;18.00;46.00;;;;;;5009893;28;20434;-73
2021/05/21 12:54:46;;;;;;;3.33;1.60;;;17.90;46.30;;;;;;5005279;28;20466;-72
2021/05/21 12:57:20;;;;;;;6.83;1.93;;;17.90;47.00;;;;;;5009272;28;20457;-72
2021/05/21 12:59:54;;;;;;;8.13;2.47;;;18.10;46.40;;;;;;5008581;28;20808;-72
2021/05/21 13:02:24;;;;;;;7.50;2.37;;;18.20;47.00;;;;;;5010383;28;20432;-72
2021/05/21 13:05:10;;;;;;;5.13;2.00;;;18.30;46.40;;;;;;4989505;28;20489;-73